sensor_id;sensor_type;location;lat;lon;timestamp;P1;durP1;ratioP1;P2;durP2;ratioP2
22881;SDS011;11608;50.894;5.296;2022-11-15T00:01:19;43.83;;;40.10;;
22881;SDS011;11608;50.894;5.296;2022-11-15T00:03:45;43.47;;;39.63;;
22881;SDS011;11608;50.894;5.296;2022-11-15T00:06:11;41.30;;;37.60;;
22881;SDS011;11608;50.894;5.296;2022-11-15T00:08:37;41.85;;;38.03;;
22881;SDS011;11608;50.894;5.296;2022-11-15T00:11:08;44.53;;;40.45;;
22881;SDS011;11608;50.894;5.296;2022-11-15T00:13:35;43.05;;;39.25;;
22881;SDS011;11608;50.894;5.296;2022-11-15T00:16:01;44.10;;;40.25;;
22881;SDS011;11608;50.894;5.296;2022-11-15T00:18:27;43.03;;;39.17;;
22881;SDS011;11608;50.894;5.296;2022-11-15T00:20:53;40.83;;;37.42;;
22881;SDS011;11608;50.894;5.296;2022-11-15T00:23:19;41.13;;;37.22;;
22881;SDS011;11608;50.894;5.296;2022-11-15T00:25:45;42.63;;;38.75;;
22881;SDS011;11608;50.894;5.296;2022-11-15T00:28:11;40.88;;;37.08;;
22881;SDS011;11608;50.894;5.296;2022-11-15T00:30:37;41.38;;;37.85;;
22881;SDS011;11608;50.894;5.296;2022-11-15T00:33:04;41.95;;;38.13;;
22881;SDS011;11608;50.894;5.296;2022-11-15T00:35:33;41.53;;;37.90;;
22881;SDS011;11608;50.894;5.296;2022-11-15T00:38:00;40.72;;;37.00;;
22881;SDS011;11608;50.894;5.296;2022-11-15T00:40:26;45.78;;;41.33;;
22881;SDS011;11608;50.894;5.296;2022-11-15T00:42:52;44.92;;;40.97;;
22881;SDS011;11608;50.894;5.296;2022-11-15T00:45:18;44.08;;;40.33;;
22881;SDS011;11608;50.894;5.296;2022-11-15T00:47:45;43.22;;;39.47;;
22881;SDS011;11608;50.894;5.296;2022-11-15T00:50:11;40.35;;;36.85;;
22881;SDS011;11608;50.894;5.296;2022-11-15T00:52:37;41.13;;;37.33;;
22881;SDS011;11608;50.894;5.296;2022-11-15T00:55:03;42.20;;;38.38;;
22881;SDS011;11608;50.894;5.296;2022-11-15T00:57:29;44.05;;;40.20;;
22881;SDS011;11608;50.894;5.296;2022-11-15T00:59:55;43.35;;;39.53;;
22881;SDS011;11608;50.894;5.296;2022-11-15T01:02:21;43.20;;;39.40;;
22881;SDS011;11608;50.894;5.296;2022-11-15T01:04:47;42.08;;;38.38;;
22881;SDS011;11608;50.894;5.296;2022-11-15T01:07:13;41.55;;;37.72;;
22881;SDS011;11608;50.894;5.296;2022-11-15T01:09:39;43.47;;;39.55;;
22881;SDS011;11608;50.894;5.296;2022-11-15T01:12:05;42.97;;;39.13;;
22881;SDS011;11608;50.894;5.296;2022-11-15T01:14:31;44.22;;;40.15;;
22881;SDS011;11608;50.894;5.296;2022-11-15T01:16:57;42.00;;;38.30;;
22881;SDS011;11608;50.894;5.296;2022-11-15T01:19:23;41.10;;;37.38;;
22881;SDS011;11608;50.894;5.296;2022-11-15T01:21:50;43.60;;;39.78;;
22881;SDS011;11608;50.894;5.296;2022-11-15T01:24:16;42.63;;;38.97;;
22881;SDS011;11608;50.894;5.296;2022-11-15T01:26:42;42.15;;;38.35;;
22881;SDS011;11608;50.894;5.296;2022-11-15T01:29:08;41.78;;;38.13;;
22881;SDS011;11608;50.894;5.296;2022-11-15T01:31:33;42.95;;;39.10;;
22881;SDS011;11608;50.894;5.296;2022-11-15T01:33:59;43.05;;;38.95;;
22881;SDS011;11608;50.894;5.296;2022-11-15T01:36:25;44.10;;;40.40;;
22881;SDS011;11608;50.894;5.296;2022-11-15T01:38:55;45.92;;;41.80;;
22881;SDS011;11608;50.894;5.296;2022-11-15T01:41:27;43.42;;;39.63;;
22881;SDS011;11608;50.894;5.296;2022-11-15T01:43:54;42.67;;;39.08;;
22881;SDS011;11608;50.894;5.296;2022-11-15T01:46:33;42.67;;;38.80;;
22881;SDS011;11608;50.894;5.296;2022-11-15T01:49:00;44.05;;;40.17;;
22881;SDS011;11608;50.894;5.296;2022-11-15T01:51:28;43.63;;;39.55;;
22881;SDS011;11608;50.894;5.296;2022-11-15T01:53:57;42.58;;;38.97;;
22881;SDS011;11608;50.894;5.296;2022-11-15T01:56:25;43.22;;;39.10;;
22881;SDS011;11608;50.894;5.296;2022-11-15T01:58:53;40.67;;;37.08;;
22881;SDS011;11608;50.894;5.296;2022-11-15T02:01:21;41.50;;;37.72;;
22881;SDS011;11608;50.894;5.296;2022-11-15T02:03:51;44.55;;;40.70;;
22881;SDS011;11608;50.894;5.296;2022-11-15T02:06:18;46.17;;;42.03;;
22881;SDS011;11608;50.894;5.296;2022-11-15T02:08:44;43.42;;;39.53;;
22881;SDS011;11608;50.894;5.296;2022-11-15T02:11:10;44.22;;;40.47;;
22881;SDS011;11608;50.894;5.296;2022-11-15T02:13:36;41.80;;;37.75;;
22881;SDS011;11608;50.894;5.296;2022-11-15T02:18:35;43.00;;;39.00;;
22881;SDS011;11608;50.894;5.296;2022-11-15T02:28:58;41.10;;;37.60;;
22881;SDS011;11608;50.894;5.296;2022-11-15T02:34:07;40.67;;;37.20;;
22881;SDS011;11608;50.894;5.296;2022-11-15T02:36:36;40.22;;;36.53;;
22881;SDS011;11608;50.894;5.296;2022-11-15T02:39:18;39.00;;;35.55;;
22881;SDS011;11608;50.894;5.296;2022-11-15T02:41:53;43.05;;;39.40;;
22881;SDS011;11608;50.894;5.296;2022-11-15T02:44:29;41.90;;;38.55;;
22881;SDS011;11608;50.894;5.296;2022-11-15T02:46:58;42.92;;;39.42;;
22881;SDS011;11608;50.894;5.296;2022-11-15T02:49:38;39.05;;;35.75;;
22881;SDS011;11608;50.894;5.296;2022-11-15T02:52:05;42.25;;;38.90;;
22881;SDS011;11608;50.894;5.296;2022-11-15T02:54:32;42.40;;;39.03;;
22881;SDS011;11608;50.894;5.296;2022-11-15T02:57:00;42.92;;;39.42;;
22881;SDS011;11608;50.894;5.296;2022-11-15T03:07:35;41.72;;;38.30;;
22881;SDS011;11608;50.894;5.296;2022-11-15T03:09:35;42.72;;;39.13;;
22881;SDS011;11608;50.894;5.296;2022-11-15T03:12:13;42.65;;;39.15;;
22881;SDS011;11608;50.894;5.296;2022-11-15T03:14:58;41.85;;;38.38;;
22881;SDS011;11608;50.894;5.296;2022-11-15T03:17:27;43.83;;;40.00;;
22881;SDS011;11608;50.894;5.296;2022-11-15T03:19:55;42.45;;;39.00;;
22881;SDS011;11608;50.894;5.296;2022-11-15T03:22:23;41.67;;;38.28;;
22881;SDS011;11608;50.894;5.296;2022-11-15T03:24:52;41.28;;;37.88;;
22881;SDS011;11608;50.894;5.296;2022-11-15T03:27:19;39.35;;;35.67;;
22881;SDS011;11608;50.894;5.296;2022-11-15T03:29:49;42.95;;;39.42;;
22881;SDS011;11608;50.894;5.296;2022-11-15T03:32:17;41.95;;;38.28;;
22881;SDS011;11608;50.894;5.296;2022-11-15T03:34:49;42.78;;;38.97;;
22881;SDS011;11608;50.894;5.296;2022-11-15T03:37:16;41.90;;;38.50;;
22881;SDS011;11608;50.894;5.296;2022-11-15T03:39:43;40.10;;;36.83;;
22881;SDS011;11608;50.894;5.296;2022-11-15T03:42:23;42.83;;;39.35;;
22881;SDS011;11608;50.894;5.296;2022-11-15T03:45:01;43.38;;;39.85;;
22881;SDS011;11608;50.894;5.296;2022-11-15T03:47:31;43.15;;;39.17;;
22881;SDS011;11608;50.894;5.296;2022-11-15T03:49:59;38.53;;;35.53;;
22881;SDS011;11608;50.894;5.296;2022-11-15T03:52:26;42.53;;;38.90;;
22881;SDS011;11608;50.894;5.296;2022-11-15T03:54:56;43.42;;;40.03;;
22881;SDS011;11608;50.894;5.296;2022-11-15T03:57:22;43.38;;;40.00;;
22881;SDS011;11608;50.894;5.296;2022-11-15T03:59:48;42.22;;;38.97;;
22881;SDS011;11608;50.894;5.296;2022-11-15T04:02:14;41.10;;;37.78;;
22881;SDS011;11608;50.894;5.296;2022-11-15T04:04:40;42.05;;;38.47;;
22881;SDS011;11608;50.894;5.296;2022-11-15T04:07:06;42.13;;;38.88;;
22881;SDS011;11608;50.894;5.296;2022-11-15T04:09:32;42.58;;;39.17;;
22881;SDS011;11608;50.894;5.296;2022-11-15T04:12:18;41.45;;;38.00;;
22881;SDS011;11608;50.894;5.296;2022-11-15T04:14:55;40.10;;;36.85;;
22881;SDS011;11608;50.894;5.296;2022-11-15T04:17:38;42.58;;;39.08;;
22881;SDS011;11608;50.894;5.296;2022-11-15T04:20:04;39.20;;;35.45;;
22881;SDS011;11608;50.894;5.296;2022-11-15T04:22:51;39.08;;;36.03;;
22881;SDS011;11608;50.894;5.296;2022-11-15T04:25:36;41.25;;;38.08;;
22881;SDS011;11608;50.894;5.296;2022-11-15T04:28:02;40.72;;;37.42;;
22881;SDS011;11608;50.894;5.296;2022-11-15T04:30:28;40.08;;;36.58;;
22881;SDS011;11608;50.894;5.296;2022-11-15T04:32:54;40.55;;;37.15;;
22881;SDS011;11608;50.894;5.296;2022-11-15T04:35:20;36.92;;;34.03;;
22881;SDS011;11608;50.894;5.296;2022-11-15T04:37:46;37.13;;;34.22;;
22881;SDS011;11608;50.894;5.296;2022-11-15T04:40:12;39.38;;;36.33;;
22881;SDS011;11608;50.894;5.296;2022-11-15T04:42:40;41.20;;;37.90;;
22881;SDS011;11608;50.894;5.296;2022-11-15T04:45:07;37.80;;;34.70;;
22881;SDS011;11608;50.894;5.296;2022-11-15T04:47:33;39.30;;;36.20;;
22881;SDS011;11608;50.894;5.296;2022-11-15T04:49:59;38.55;;;35.45;;
22881;SDS011;11608;50.894;5.296;2022-11-15T04:52:25;38.10;;;35.03;;
22881;SDS011;11608;50.894;5.296;2022-11-15T04:54:51;34.28;;;31.88;;
22881;SDS011;11608;50.894;5.296;2022-11-15T04:57:17;34.53;;;31.90;;
22881;SDS011;11608;50.894;5.296;2022-11-15T04:59:43;33.30;;;30.70;;
22881;SDS011;11608;50.894;5.296;2022-11-15T05:02:09;32.22;;;29.98;;
22881;SDS011;11608;50.894;5.296;2022-11-15T05:04:35;33.75;;;31.45;;
22881;SDS011;11608;50.894;5.296;2022-11-15T05:07:01;31.92;;;29.52;;
22881;SDS011;11608;50.894;5.296;2022-11-15T05:09:29;34.60;;;32.20;;
22881;SDS011;11608;50.894;5.296;2022-11-15T05:11:55;35.45;;;32.95;;
22881;SDS011;11608;50.894;5.296;2022-11-15T05:14:21;36.55;;;33.90;;
22881;SDS011;11608;50.894;5.296;2022-11-15T05:16:47;36.17;;;33.53;;
22881;SDS011;11608;50.894;5.296;2022-11-15T05:19:13;36.08;;;33.58;;
22881;SDS011;11608;50.894;5.296;2022-11-15T05:21:39;36.35;;;33.85;;
22881;SDS011;11608;50.894;5.296;2022-11-15T05:24:05;35.47;;;32.72;;
22881;SDS011;11608;50.894;5.296;2022-11-15T05:26:31;36.05;;;33.45;;
22881;SDS011;11608;50.894;5.296;2022-11-15T05:28:58;37.58;;;34.85;;
22881;SDS011;11608;50.894;5.296;2022-11-15T05:31:25;35.53;;;32.97;;
22881;SDS011;11608;50.894;5.296;2022-11-15T05:33:51;34.95;;;32.13;;
22881;SDS011;11608;50.894;5.296;2022-11-15T05:38:52;36.25;;;33.63;;
22881;SDS011;11608;50.894;5.296;2022-11-15T05:41:19;33.35;;;30.95;;
22881;SDS011;11608;50.894;5.296;2022-11-15T05:43:46;36.10;;;33.63;;
22881;SDS011;11608;50.894;5.296;2022-11-15T05:46:14;38.78;;;36.17;;
22881;SDS011;11608;50.894;5.296;2022-11-15T05:48:41;33.58;;;31.17;;
22881;SDS011;11608;50.894;5.296;2022-11-15T05:51:07;36.42;;;33.65;;
22881;SDS011;11608;50.894;5.296;2022-11-15T05:53:33;34.88;;;32.08;;
22881;SDS011;11608;50.894;5.296;2022-11-15T05:56:00;36.10;;;33.33;;
22881;SDS011;11608;50.894;5.296;2022-11-15T05:58:27;37.55;;;35.05;;
22881;SDS011;11608;50.894;5.296;2022-11-15T06:00:53;35.60;;;32.90;;
22881;SDS011;11608;50.894;5.296;2022-11-15T06:03:19;30.52;;;28.20;;
22881;SDS011;11608;50.894;5.296;2022-11-15T06:05:45;34.22;;;31.23;;
22881;SDS011;11608;50.894;5.296;2022-11-15T06:08:11;33.88;;;31.38;;
22881;SDS011;11608;50.894;5.296;2022-11-15T06:10:37;32.28;;;29.63;;
22881;SDS011;11608;50.894;5.296;2022-11-15T06:13:04;31.00;;;28.65;;
22881;SDS011;11608;50.894;5.296;2022-11-15T06:15:31;33.55;;;31.13;;
22881;SDS011;11608;50.894;5.296;2022-11-15T06:17:57;33.28;;;30.73;;
22881;SDS011;11608;50.894;5.296;2022-11-15T06:20:24;32.83;;;30.15;;
22881;SDS011;11608;50.894;5.296;2022-11-15T06:22:50;35.90;;;33.00;;
22881;SDS011;11608;50.894;5.296;2022-11-15T06:25:16;35.78;;;33.25;;
22881;SDS011;11608;50.894;5.296;2022-11-15T06:27:42;34.03;;;31.55;;
22881;SDS011;11608;50.894;5.296;2022-11-15T06:30:08;36.67;;;34.08;;
22881;SDS011;11608;50.894;5.296;2022-11-15T06:32:34;36.85;;;34.25;;
22881;SDS011;11608;50.894;5.296;2022-11-15T06:35:00;35.33;;;32.45;;
22881;SDS011;11608;50.894;5.296;2022-11-15T06:37:26;31.80;;;29.45;;
22881;SDS011;11608;50.894;5.296;2022-11-15T06:39:52;34.83;;;32.08;;
22881;SDS011;11608;50.894;5.296;2022-11-15T06:42:18;36.10;;;33.45;;
22881;SDS011;11608;50.894;5.296;2022-11-15T06:44:44;32.53;;;30.00;;
22881;SDS011;11608;50.894;5.296;2022-11-15T06:47:10;34.28;;;31.85;;
22881;SDS011;11608;50.894;5.296;2022-11-15T06:49:36;33.15;;;30.83;;
22881;SDS011;11608;50.894;5.296;2022-11-15T06:52:02;33.35;;;30.77;;
22881;SDS011;11608;50.894;5.296;2022-11-15T06:54:28;31.65;;;29.08;;
22881;SDS011;11608;50.894;5.296;2022-11-15T06:56:54;34.05;;;31.65;;
22881;SDS011;11608;50.894;5.296;2022-11-15T06:59:20;31.48;;;29.20;;
22881;SDS011;11608;50.894;5.296;2022-11-15T07:01:46;31.23;;;28.80;;
22881;SDS011;11608;50.894;5.296;2022-11-15T07:04:12;32.85;;;30.65;;
22881;SDS011;11608;50.894;5.296;2022-11-15T07:06:38;32.65;;;29.95;;
22881;SDS011;11608;50.894;5.296;2022-11-15T07:09:04;30.48;;;28.08;;
22881;SDS011;11608;50.894;5.296;2022-11-15T07:11:30;31.70;;;29.40;;
22881;SDS011;11608;50.894;5.296;2022-11-15T07:13:56;30.88;;;28.25;;
22881;SDS011;11608;50.894;5.296;2022-11-15T07:16:22;29.65;;;27.15;;
22881;SDS011;11608;50.894;5.296;2022-11-15T07:18:48;30.75;;;28.35;;
22881;SDS011;11608;50.894;5.296;2022-11-15T07:21:14;31.85;;;28.92;;
22881;SDS011;11608;50.894;5.296;2022-11-15T07:23:40;34.75;;;31.23;;
22881;SDS011;11608;50.894;5.296;2022-11-15T07:26:06;30.38;;;28.10;;
22881;SDS011;11608;50.894;5.296;2022-11-15T07:28:32;30.52;;;28.13;;
22881;SDS011;11608;50.894;5.296;2022-11-15T07:31:01;30.60;;;28.30;;
22881;SDS011;11608;50.894;5.296;2022-11-15T07:33:27;32.63;;;30.00;;
22881;SDS011;11608;50.894;5.296;2022-11-15T07:35:53;34.20;;;31.20;;
22881;SDS011;11608;50.894;5.296;2022-11-15T07:38:19;34.55;;;31.45;;
22881;SDS011;11608;50.894;5.296;2022-11-15T07:40:45;34.78;;;31.42;;
22881;SDS011;11608;50.894;5.296;2022-11-15T07:43:11;33.35;;;30.55;;
22881;SDS011;11608;50.894;5.296;2022-11-15T07:45:44;31.48;;;29.08;;
22881;SDS011;11608;50.894;5.296;2022-11-15T07:48:10;30.45;;;28.13;;
22881;SDS011;11608;50.894;5.296;2022-11-15T07:50:37;30.33;;;27.80;;
22881;SDS011;11608;50.894;5.296;2022-11-15T07:53:06;30.90;;;28.42;;
22881;SDS011;11608;50.894;5.296;2022-11-15T07:55:33;30.52;;;28.17;;
22881;SDS011;11608;50.894;5.296;2022-11-15T07:58:06;30.85;;;28.45;;
22881;SDS011;11608;50.894;5.296;2022-11-15T08:00:33;31.13;;;28.58;;
22881;SDS011;11608;50.894;5.296;2022-11-15T08:05:31;32.33;;;29.80;;
22881;SDS011;11608;50.894;5.296;2022-11-15T08:07:58;31.77;;;29.38;;
22881;SDS011;11608;50.894;5.296;2022-11-15T08:10:24;31.55;;;29.20;;
22881;SDS011;11608;50.894;5.296;2022-11-15T08:13:00;30.42;;;28.00;;
22881;SDS011;11608;50.894;5.296;2022-11-15T08:15:30;30.48;;;27.77;;
22881;SDS011;11608;50.894;5.296;2022-11-15T08:17:56;28.83;;;26.67;;
22881;SDS011;11608;50.894;5.296;2022-11-15T08:20:23;27.77;;;25.77;;
22881;SDS011;11608;50.894;5.296;2022-11-15T08:22:49;28.67;;;26.38;;
22881;SDS011;11608;50.894;5.296;2022-11-15T08:25:16;28.38;;;26.48;;
22881;SDS011;11608;50.894;5.296;2022-11-15T08:27:42;27.65;;;25.13;;
22881;SDS011;11608;50.894;5.296;2022-11-15T08:30:09;25.00;;;23.30;;
22881;SDS011;11608;50.894;5.296;2022-11-15T08:32:40;25.63;;;23.63;;
22881;SDS011;11608;50.894;5.296;2022-11-15T08:35:07;25.33;;;23.30;;
22881;SDS011;11608;50.894;5.296;2022-11-15T08:37:33;25.08;;;23.17;;
22881;SDS011;11608;50.894;5.296;2022-11-15T08:40:00;24.38;;;22.67;;
22881;SDS011;11608;50.894;5.296;2022-11-15T08:42:26;25.08;;;23.38;;
22881;SDS011;11608;50.894;5.296;2022-11-15T08:44:52;24.85;;;22.75;;
22881;SDS011;11608;50.894;5.296;2022-11-15T08:47:18;24.33;;;22.42;;
22881;SDS011;11608;50.894;5.296;2022-11-15T08:49:44;23.77;;;21.88;;
22881;SDS011;11608;50.894;5.296;2022-11-15T08:52:10;24.40;;;22.20;;
22881;SDS011;11608;50.894;5.296;2022-11-15T08:54:36;24.15;;;22.20;;
22881;SDS011;11608;50.894;5.296;2022-11-15T08:57:02;22.38;;;20.58;;
22881;SDS011;11608;50.894;5.296;2022-11-15T08:59:28;22.63;;;20.95;;
22881;SDS011;11608;50.894;5.296;2022-11-15T09:01:54;23.75;;;22.00;;
22881;SDS011;11608;50.894;5.296;2022-11-15T09:04:21;22.95;;;21.23;;
22881;SDS011;11608;50.894;5.296;2022-11-15T09:06:47;23.65;;;21.77;;
22881;SDS011;11608;50.894;5.296;2022-11-15T09:09:12;22.52;;;20.60;;
22881;SDS011;11608;50.894;5.296;2022-11-15T09:11:39;22.90;;;21.10;;
22881;SDS011;11608;50.894;5.296;2022-11-15T09:14:05;22.50;;;20.90;;
22881;SDS011;11608;50.894;5.296;2022-11-15T09:16:31;21.42;;;20.02;;
22881;SDS011;11608;50.894;5.296;2022-11-15T09:18:57;22.63;;;20.80;;
22881;SDS011;11608;50.894;5.296;2022-11-15T09:21:23;21.73;;;20.23;;
22881;SDS011;11608;50.894;5.296;2022-11-15T09:23:52;22.48;;;20.67;;
22881;SDS011;11608;50.894;5.296;2022-11-15T09:26:18;22.20;;;20.67;;
22881;SDS011;11608;50.894;5.296;2022-11-15T09:28:44;22.65;;;20.75;;
22881;SDS011;11608;50.894;5.296;2022-11-15T09:31:10;22.33;;;20.80;;
22881;SDS011;11608;50.894;5.296;2022-11-15T09:33:36;23.30;;;21.40;;
22881;SDS011;11608;50.894;5.296;2022-11-15T09:36:03;22.85;;;20.98;;
22881;SDS011;11608;50.894;5.296;2022-11-15T09:38:30;23.80;;;21.92;;
22881;SDS011;11608;50.894;5.296;2022-11-15T09:43:49;25.08;;;23.05;;
22881;SDS011;11608;50.894;5.296;2022-11-15T09:46:18;22.00;;;20.25;;
22881;SDS011;11608;50.894;5.296;2022-11-15T09:51:14;23.25;;;21.35;;
22881;SDS011;11608;50.894;5.296;2022-11-15T09:53:47;23.85;;;22.15;;
22881;SDS011;11608;50.894;5.296;2022-11-15T09:56:19;23.15;;;21.55;;
22881;SDS011;11608;50.894;5.296;2022-11-15T09:59:08;23.05;;;21.23;;
22881;SDS011;11608;50.894;5.296;2022-11-15T10:04:19;23.20;;;21.27;;
22881;SDS011;11608;50.894;5.296;2022-11-15T10:09:44;23.13;;;20.92;;
22881;SDS011;11608;50.894;5.296;2022-11-15T10:12:07;21.73;;;20.20;;
22881;SDS011;11608;50.894;5.296;2022-11-15T10:14:34;22.63;;;20.85;;
22881;SDS011;11608;50.894;5.296;2022-11-15T10:22:38;23.27;;;21.38;;
22881;SDS011;11608;50.894;5.296;2022-11-15T10:27:34;21.80;;;20.00;;
22881;SDS011;11608;50.894;5.296;2022-11-15T10:30:00;22.25;;;20.55;;
22881;SDS011;11608;50.894;5.296;2022-11-15T10:32:30;22.13;;;20.30;;
22881;SDS011;11608;50.894;5.296;2022-11-15T10:34:58;22.25;;;20.55;;
22881;SDS011;11608;50.894;5.296;2022-11-15T10:37:28;22.67;;;20.83;;
22881;SDS011;11608;50.894;5.296;2022-11-15T10:40:28;21.88;;;20.08;;
22881;SDS011;11608;50.894;5.296;2022-11-15T10:42:47;21.63;;;19.83;;
22881;SDS011;11608;50.894;5.296;2022-11-15T10:45:28;21.55;;;19.75;;
22881;SDS011;11608;50.894;5.296;2022-11-15T10:47:59;22.48;;;20.58;;
22881;SDS011;11608;50.894;5.296;2022-11-15T10:50:41;21.80;;;20.25;;
22881;SDS011;11608;50.894;5.296;2022-11-15T10:56:02;22.48;;;20.35;;
22881;SDS011;11608;50.894;5.296;2022-11-15T11:01:08;21.58;;;19.88;;
22881;SDS011;11608;50.894;5.296;2022-11-15T11:03:35;21.52;;;19.85;;
22881;SDS011;11608;50.894;5.296;2022-11-15T11:06:06;21.80;;;20.30;;
22881;SDS011;11608;50.894;5.296;2022-11-15T11:08:32;22.02;;;20.23;;
22881;SDS011;11608;50.894;5.296;2022-11-15T11:10:59;21.45;;;19.85;;
22881;SDS011;11608;50.894;5.296;2022-11-15T11:13:33;21.67;;;19.85;;
22881;SDS011;11608;50.894;5.296;2022-11-15T11:16:09;20.67;;;19.15;;
22881;SDS011;11608;50.894;5.296;2022-11-15T11:21:10;21.13;;;19.42;;
22881;SDS011;11608;50.894;5.296;2022-11-15T11:36:47;20.45;;;18.88;;
22881;SDS011;11608;50.894;5.296;2022-11-15T11:44:42;19.95;;;18.50;;
22881;SDS011;11608;50.894;5.296;2022-11-15T11:47:11;21.90;;;19.95;;
22881;SDS011;11608;50.894;5.296;2022-11-15T11:49:43;21.35;;;19.70;;
22881;SDS011;11608;50.894;5.296;2022-11-15T11:52:18;21.63;;;20.00;;
22881;SDS011;11608;50.894;5.296;2022-11-15T11:54:49;21.88;;;20.15;;
22881;SDS011;11608;50.894;5.296;2022-11-15T11:57:21;21.75;;;19.92;;
22881;SDS011;11608;50.894;5.296;2022-11-15T12:02:41;21.45;;;19.85;;
22881;SDS011;11608;50.894;5.296;2022-11-15T12:05:10;22.70;;;20.45;;
22881;SDS011;11608;50.894;5.296;2022-11-15T12:07:37;22.23;;;20.45;;
22881;SDS011;11608;50.894;5.296;2022-11-15T12:10:11;21.85;;;20.35;;
22881;SDS011;11608;50.894;5.296;2022-11-15T12:12:58;21.50;;;19.67;;
22881;SDS011;11608;50.894;5.296;2022-11-15T12:15:42;21.50;;;19.65;;
22881;SDS011;11608;50.894;5.296;2022-11-15T12:18:12;21.75;;;19.83;;
22881;SDS011;11608;50.894;5.296;2022-11-15T12:20:40;21.70;;;20.00;;
22881;SDS011;11608;50.894;5.296;2022-11-15T12:23:10;22.38;;;20.45;;
22881;SDS011;11608;50.894;5.296;2022-11-15T12:25:44;21.52;;;19.90;;
22881;SDS011;11608;50.894;5.296;2022-11-15T12:28:21;22.30;;;20.42;;
22881;SDS011;11608;50.894;5.296;2022-11-15T12:30:55;21.75;;;20.00;;
22881;SDS011;11608;50.894;5.296;2022-11-15T12:38:56;22.88;;;20.98;;
22881;SDS011;11608;50.894;5.296;2022-11-15T12:41:26;22.00;;;20.27;;
22881;SDS011;11608;50.894;5.296;2022-11-15T12:43:53;21.92;;;20.35;;
22881;SDS011;11608;50.894;5.296;2022-11-15T12:46:21;22.13;;;20.48;;
22881;SDS011;11608;50.894;5.296;2022-11-15T12:49:08;21.48;;;19.98;;
22881;SDS011;11608;50.894;5.296;2022-11-15T13:02:47;22.23;;;20.48;;
22881;SDS011;11608;50.894;5.296;2022-11-15T13:17:38;21.70;;;20.20;;
22881;SDS011;11608;50.894;5.296;2022-11-15T13:22:43;22.15;;;20.17;;
22881;SDS011;11608;50.894;5.296;2022-11-15T13:30:41;22.23;;;20.58;;
22881;SDS011;11608;50.894;5.296;2022-11-15T13:33:15;21.75;;;19.95;;
22881;SDS011;11608;50.894;5.296;2022-11-15T13:35:41;22.08;;;20.17;;
22881;SDS011;11608;50.894;5.296;2022-11-15T13:38:18;22.33;;;20.50;;
22881;SDS011;11608;50.894;5.296;2022-11-15T13:40:45;21.63;;;19.85;;
22881;SDS011;11608;50.894;5.296;2022-11-15T13:43:25;22.15;;;20.45;;
22881;SDS011;11608;50.894;5.296;2022-11-15T13:48:35;21.50;;;20.00;;
22881;SDS011;11608;50.894;5.296;2022-11-15T13:51:02;23.23;;;21.27;;
22881;SDS011;11608;50.894;5.296;2022-11-15T13:53:30;22.58;;;20.90;;
22881;SDS011;11608;50.894;5.296;2022-11-15T13:55:57;22.55;;;20.88;;
22881;SDS011;11608;50.894;5.296;2022-11-15T13:58:24;21.45;;;20.08;;
22881;SDS011;11608;50.894;5.296;2022-11-15T14:00:58;23.50;;;21.70;;
22881;SDS011;11608;50.894;5.296;2022-11-15T14:03:25;22.35;;;20.75;;
22881;SDS011;11608;50.894;5.296;2022-11-15T14:06:09;21.77;;;20.38;;
22881;SDS011;11608;50.894;5.296;2022-11-15T14:08:37;22.25;;;20.55;;
22881;SDS011;11608;50.894;5.296;2022-11-15T14:11:07;23.25;;;21.67;;
22881;SDS011;11608;50.894;5.296;2022-11-15T14:13:33;24.50;;;22.70;;
22881;SDS011;11608;50.894;5.296;2022-11-15T14:16:12;22.70;;;21.20;;
22881;SDS011;11608;50.894;5.296;2022-11-15T14:21:10;20.80;;;19.27;;
22881;SDS011;11608;50.894;5.296;2022-11-15T14:23:36;20.48;;;18.88;;
22881;SDS011;11608;50.894;5.296;2022-11-15T14:26:02;20.58;;;19.17;;
22881;SDS011;11608;50.894;5.296;2022-11-15T14:28:29;21.27;;;19.50;;
22881;SDS011;11608;50.894;5.296;2022-11-15T14:30:58;21.42;;;19.98;;
22881;SDS011;11608;50.894;5.296;2022-11-15T14:35:54;21.88;;;20.38;;
22881;SDS011;11608;50.894;5.296;2022-11-15T14:38:21;21.25;;;19.85;;
22881;SDS011;11608;50.894;5.296;2022-11-15T14:40:48;21.58;;;20.00;;
22881;SDS011;11608;50.894;5.296;2022-11-15T14:43:14;22.02;;;20.23;;
22881;SDS011;11608;50.894;5.296;2022-11-15T14:45:40;21.00;;;19.60;;
22881;SDS011;11608;50.894;5.296;2022-11-15T14:48:07;20.50;;;19.10;;
22881;SDS011;11608;50.894;5.296;2022-11-15T14:50:33;21.15;;;19.65;;
22881;SDS011;11608;50.894;5.296;2022-11-15T14:53:00;20.23;;;18.92;;
22881;SDS011;11608;50.894;5.296;2022-11-15T14:55:27;21.73;;;20.00;;
22881;SDS011;11608;50.894;5.296;2022-11-15T14:57:53;21.98;;;20.38;;
22881;SDS011;11608;50.894;5.296;2022-11-15T15:00:20;21.33;;;19.70;;
22881;SDS011;11608;50.894;5.296;2022-11-15T15:02:47;21.75;;;20.20;;
22881;SDS011;11608;50.894;5.296;2022-11-15T15:05:14;21.55;;;20.05;;
22881;SDS011;11608;50.894;5.296;2022-11-15T15:07:44;21.17;;;19.77;;
22881;SDS011;11608;50.894;5.296;2022-11-15T15:10:11;22.52;;;21.02;;
22881;SDS011;11608;50.894;5.296;2022-11-15T15:12:38;23.10;;;21.52;;
22881;SDS011;11608;50.894;5.296;2022-11-15T15:15:04;21.70;;;20.30;;
22881;SDS011;11608;50.894;5.296;2022-11-15T15:17:31;22.65;;;21.10;;
22881;SDS011;11608;50.894;5.296;2022-11-15T15:19:57;23.02;;;21.63;;
22881;SDS011;11608;50.894;5.296;2022-11-15T15:22:23;22.13;;;20.70;;
22881;SDS011;11608;50.894;5.296;2022-11-15T15:24:52;23.92;;;22.52;;
22881;SDS011;11608;50.894;5.296;2022-11-15T15:27:18;23.38;;;21.90;;
22881;SDS011;11608;50.894;5.296;2022-11-15T15:29:44;22.77;;;21.38;;
22881;SDS011;11608;50.894;5.296;2022-11-15T15:32:11;24.02;;;22.63;;
22881;SDS011;11608;50.894;5.296;2022-11-15T15:34:38;24.98;;;23.33;;
22881;SDS011;11608;50.894;5.296;2022-11-15T15:37:23;24.08;;;22.58;;
22881;SDS011;11608;50.894;5.296;2022-11-15T15:39:53;27.65;;;25.80;;
22881;SDS011;11608;50.894;5.296;2022-11-15T15:42:20;26.45;;;24.38;;
22881;SDS011;11608;50.894;5.296;2022-11-15T15:44:47;31.02;;;28.90;;
22881;SDS011;11608;50.894;5.296;2022-11-15T15:47:13;30.50;;;28.42;;
22881;SDS011;11608;50.894;5.296;2022-11-15T15:49:44;26.80;;;25.10;;
22881;SDS011;11608;50.894;5.296;2022-11-15T15:52:10;26.08;;;24.33;;
22881;SDS011;11608;50.894;5.296;2022-11-15T15:54:36;29.67;;;27.98;;
22881;SDS011;11608;50.894;5.296;2022-11-15T15:57:02;27.27;;;25.55;;
22881;SDS011;11608;50.894;5.296;2022-11-15T15:59:29;26.98;;;25.20;;
22881;SDS011;11608;50.894;5.296;2022-11-15T16:01:56;25.30;;;23.73;;
22881;SDS011;11608;50.894;5.296;2022-11-15T16:04:22;25.80;;;23.98;;
22881;SDS011;11608;50.894;5.296;2022-11-15T16:06:48;28.02;;;26.02;;
22881;SDS011;11608;50.894;5.296;2022-11-15T16:09:17;28.80;;;26.90;;
22881;SDS011;11608;50.894;5.296;2022-11-15T16:12:04;29.70;;;27.88;;
22881;SDS011;11608;50.894;5.296;2022-11-15T16:14:30;29.60;;;27.48;;
22881;SDS011;11608;50.894;5.296;2022-11-15T16:16:56;31.17;;;29.08;;
22881;SDS011;11608;50.894;5.296;2022-11-15T16:19:22;32.42;;;30.30;;
22881;SDS011;11608;50.894;5.296;2022-11-15T16:21:49;30.60;;;28.52;;
22881;SDS011;11608;50.894;5.296;2022-11-15T16:24:17;29.65;;;27.83;;
22881;SDS011;11608;50.894;5.296;2022-11-15T16:26:43;30.02;;;27.90;;